Terminal Aerodrome Forecast
Issued by NWS

Home | Current Version | Previous Version | Text Only | Print | Product List | Glossary On
Versions: 1 2 3 4 5 6 7 8 9 10 11 12 13 14 15 16 17 18 19 20
856
FTUS43 KMPX 242320
TAFAXN
TAF
KAXN 242320Z 2500/2524 04007KT P6SM OVC015
     FM250600 05007KT 6SM BR OVC015
     FM251200 36011KT 5SM -SN BR OVC008
     FM251900 35013G21KT P6SM OVC015=

USA.gov is the U.S. government's official web portal to all federal, state and local government web resources and services.